Řízení letového provozu České republiky
Letiste: LKLN Aktualizace: 27.02.2017 11:06:07  UTC
 METAR LKLN 27.02. 11:00 ...
METAR LKLN 271100Z AUTO VRB01KT 9999 BKN200 11/00 Q1009=